createdAt,value
2023-02-02T00:01:48.474Z,20.77
2023-02-02T00:04:29.912Z,18.93
2023-02-02T00:06:57.273Z,12.27
2023-02-02T00:09:29.089Z,19.07
2023-02-02T00:11:57.766Z,21.23
2023-02-02T00:14:25.311Z,14.33
2023-02-02T00:16:55.029Z,14.03
2023-02-02T00:19:28.639Z,11.63
2023-02-02T00:21:56.807Z,16.07
2023-02-02T00:24:24.419Z,15.43
2023-02-02T00:26:56.471Z,18.37
2023-02-02T00:29:28.383Z,12.47
2023-02-02T00:31:56.264Z,13.97
2023-02-02T00:34:24.086Z,15.43
2023-02-02T00:36:52.324Z,14.97
2023-02-02T00:39:27.622Z,17.63
2023-02-02T00:41:55.437Z,16.77
2023-02-02T00:44:41.175Z,16.13
2023-02-02T00:47:08.622Z,12.23
2023-02-02T00:49:35.675Z,16.13
2023-02-02T00:52:03.328Z,16.43
2023-02-02T00:54:30.743Z,12.87
2023-02-02T00:56:57.845Z,14.80
2023-02-02T00:59:25.040Z,16.00
2023-02-02T01:01:52.218Z,22.53
2023-02-02T01:04:19.208Z,18.47
2023-02-02T01:06:46.609Z,15.43
2023-02-02T01:09:13.955Z,12.80
2023-02-02T01:11:41.147Z,19.07
2023-02-02T01:14:08.311Z,19.20
2023-02-02T01:16:35.415Z,13.03
2023-02-02T01:19:03.014Z,16.77
2023-02-02T01:21:30.957Z,18.00
2023-02-02T01:23:58.193Z,17.67
2023-02-02T01:26:25.583Z,15.60
2023-02-02T01:28:53.088Z,15.17
2023-02-02T01:31:21.023Z,15.07
2023-02-02T01:33:49.970Z,14.53
2023-02-02T01:36:22.514Z,16.17
2023-02-02T01:38:50.694Z,15.87
2023-02-02T01:41:22.623Z,17.60
2023-02-02T01:44:00.222Z,15.53
2023-02-02T01:46:33.461Z,20.00
2023-02-02T01:49:20.868Z,20.57
2023-02-02T01:51:59.151Z,19.53
2023-02-02T01:54:40.692Z,15.13
2023-02-02T01:57:16.937Z,21.67
2023-02-02T01:59:46.131Z,17.93
2023-02-02T02:02:13.962Z,15.07
2023-02-02T02:04:44.502Z,17.90
2023-02-02T02:07:12.442Z,14.27
2023-02-02T02:09:39.738Z,18.53
2023-02-02T02:12:15.644Z,17.87
2023-02-02T02:15:05.453Z,20.43
2023-02-02T02:17:47.445Z,17.37
2023-02-02T02:21:28.475Z,22.30
2023-02-02T02:24:35.977Z,19.27
2023-02-02T02:27:51.394Z,14.13
2023-02-02T02:31:02.191Z,15.63
2023-02-02T02:34:16.581Z,17.30
2023-02-02T02:36:57.080Z,13.37
2023-02-02T02:39:33.124Z,16.20
2023-02-02T02:42:09.677Z,16.93
2023-02-02T02:44:37.379Z,17.97
2023-02-02T02:47:05.032Z,18.43
2023-02-02T02:49:32.124Z,23.03
2023-02-02T02:51:59.249Z,13.77
2023-02-02T02:54:33.340Z,17.80
2023-02-02T02:57:34.000Z,13.93
2023-02-02T03:00:28.007Z,21.53
2023-02-02T03:03:30.474Z,13.50
2023-02-02T03:06:11.270Z,17.27
2023-02-02T03:09:00.282Z,18.67
2023-02-02T03:11:27.593Z,17.13
2023-02-02T03:13:55.858Z,11.50
2023-02-02T03:16:23.122Z,13.53
2023-02-02T03:18:50.189Z,16.13
2023-02-02T03:21:18.541Z,17.13
2023-02-02T03:23:45.826Z,12.77
2023-02-02T03:26:13.194Z,17.07
2023-02-02T03:28:40.963Z,17.17
2023-02-02T03:31:08.485Z,17.60
2023-02-02T03:33:38.212Z,13.43
2023-02-02T03:36:06.070Z,11.87
2023-02-02T03:38:33.481Z,15.83
2023-02-02T03:41:01.880Z,14.03
2023-02-02T03:43:28.875Z,18.53
2023-02-02T03:46:02.925Z,12.63
2023-02-02T03:48:30.660Z,15.50
2023-02-02T03:50:58.023Z,13.80
2023-02-02T03:53:25.289Z,12.37
2023-02-02T03:55:52.314Z,15.07
2023-02-02T03:58:22.243Z,14.93
2023-02-02T04:00:49.790Z,14.10
2023-02-02T04:03:16.948Z,14.03
2023-02-02T04:05:43.996Z,16.00
2023-02-02T04:08:11.314Z,15.40
2023-02-02T04:10:39.724Z,18.70
2023-02-02T04:13:06.757Z,14.83
2023-02-02T04:15:34.067Z,15.47
2023-02-02T04:18:01.403Z,17.10
2023-02-02T04:20:28.567Z,15.17
2023-02-02T04:22:55.831Z,18.93
2023-02-02T04:25:23.488Z,17.63
2023-02-02T04:27:50.998Z,12.57
2023-02-02T04:30:20.045Z,16.30
2023-02-02T04:32:47.426Z,13.67
2023-02-02T04:35:14.609Z,18.03
2023-02-02T04:37:44.588Z,15.20
2023-02-02T04:40:13.109Z,10.67
2023-02-02T04:42:42.534Z,18.03
2023-02-02T04:45:10.154Z,17.90
2023-02-02T04:47:37.462Z,16.67
2023-02-02T04:50:05.111Z,17.97
2023-02-02T04:52:32.384Z,21.13
2023-02-02T04:54:59.567Z,13.30
2023-02-02T04:57:27.284Z,17.37
2023-02-02T04:59:54.479Z,16.30
2023-02-02T05:02:21.717Z,10.57
2023-02-02T05:04:49.036Z,18.80
2023-02-02T05:07:16.441Z,15.47
2023-02-02T05:09:43.484Z,16.97
2023-02-02T05:12:10.511Z,15.00
2023-02-02T05:14:37.519Z,21.73
2023-02-02T05:17:04.877Z,18.63
2023-02-02T05:19:32.199Z,12.60
2023-02-02T05:21:59.364Z,18.87
2023-02-02T05:24:28.103Z,14.73
2023-02-02T05:26:58.709Z,14.67
2023-02-02T05:29:30.115Z,14.53
2023-02-02T05:31:58.008Z,14.67
2023-02-02T05:34:26.449Z,14.67
2023-02-02T05:36:53.631Z,15.27
2023-02-02T05:39:20.789Z,16.30
2023-02-02T05:41:48.000Z,21.33
2023-02-02T05:44:15.667Z,14.93
2023-02-02T05:46:42.919Z,22.00
2023-02-02T05:49:14.300Z,16.77
2023-02-02T05:51:50.091Z,14.20
2023-02-02T05:54:20.522Z,14.73
2023-02-02T05:56:49.248Z,14.57
2023-02-02T05:59:17.570Z,13.53
2023-02-02T06:01:46.220Z,14.23
2023-02-02T06:04:14.933Z,16.43
2023-02-02T06:06:42.364Z,20.37
2023-02-02T06:09:11.302Z,15.17
2023-02-02T06:11:39.670Z,20.93
2023-02-02T06:14:07.639Z,19.00
2023-02-02T06:16:34.959Z,16.93
2023-02-02T06:19:02.507Z,16.23
2023-02-02T06:22:04.952Z,15.07
2023-02-02T06:24:32.229Z,18.87
2023-02-02T06:26:59.243Z,18.50
2023-02-02T06:29:26.510Z,15.13
2023-02-02T06:31:53.851Z,21.07
2023-02-02T06:34:20.998Z,18.57
2023-02-02T06:36:48.086Z,14.40
2023-02-02T06:39:15.141Z,12.63
2023-02-02T06:41:44.767Z,11.40
2023-02-02T06:44:11.757Z,17.00
2023-02-02T06:46:38.774Z,16.53
2023-02-02T06:49:05.892Z,11.63
2023-02-02T06:51:33.216Z,10.87
2023-02-02T06:54:00.628Z,9.20
2023-02-02T06:56:27.697Z,15.27
2023-02-02T06:58:54.804Z,14.07
2023-02-02T07:01:22.184Z,9.90
2023-02-02T07:03:52.507Z,14.73
2023-02-02T07:06:23.815Z,14.10
2023-02-02T07:09:02.248Z,18.60
2023-02-02T07:11:37.896Z,13.10
2023-02-02T07:14:06.877Z,12.43
2023-02-02T07:16:33.895Z,9.53
2023-02-02T07:19:01.175Z,16.87
2023-02-02T07:21:30.107Z,14.20
2023-02-02T07:23:58.108Z,12.33
2023-02-02T07:26:26.233Z,16.67
2023-02-02T07:28:53.345Z,10.47
2023-02-02T07:31:24.523Z,19.73
2023-02-02T07:33:52.968Z,11.37
2023-02-02T07:36:24.009Z,15.20
2023-02-02T07:38:57.743Z,14.07
2023-02-02T07:41:25.555Z,13.57
2023-02-02T07:43:52.838Z,13.93
2023-02-02T07:46:20.669Z,13.33
2023-02-02T07:48:47.977Z,13.50
2023-02-02T07:51:18.209Z,11.20
2023-02-02T07:53:48.152Z,13.93
2023-02-02T07:56:18.597Z,13.40
2023-02-02T07:58:46.171Z,12.40
2023-02-02T08:01:15.862Z,12.93
2023-02-02T08:03:44.100Z,13.00
2023-02-02T08:06:18.436Z,14.43
2023-02-02T08:08:45.916Z,9.23
2023-02-02T08:11:15.759Z,10.33
2023-02-02T08:13:43.826Z,14.27
2023-02-02T08:16:12.723Z,14.60
2023-02-02T08:18:40.314Z,15.70
2023-02-02T08:21:08.918Z,13.60
2023-02-02T08:23:38.193Z,9.47
2023-02-02T08:26:21.460Z,12.70
2023-02-02T08:28:53.415Z,17.10
2023-02-02T08:31:28.200Z,12.83
2023-02-02T08:33:58.209Z,15.87
2023-02-02T08:36:28.351Z,14.10
2023-02-02T08:39:01.986Z,21.13
2023-02-02T08:41:30.052Z,10.20
2023-02-02T08:43:57.582Z,9.97
2023-02-02T08:46:25.231Z,14.20
2023-02-02T08:48:52.678Z,13.17
2023-02-02T08:51:20.440Z,12.07
2023-02-02T08:53:48.430Z,11.57
2023-02-02T08:56:19.334Z,14.97
2023-02-02T08:58:58.932Z,13.50
2023-02-02T09:01:34.070Z,11.87
2023-02-02T09:04:08.107Z,8.50
2023-02-02T09:06:40.722Z,11.70
2023-02-02T09:09:13.383Z,13.77
2023-02-02T09:11:41.760Z,9.80
2023-02-02T09:14:11.892Z,8.77
2023-02-02T09:16:39.415Z,17.20
2023-02-02T09:19:07.498Z,13.47
2023-02-02T09:21:37.721Z,11.53
2023-02-02T09:24:12.175Z,14.87
2023-02-02T09:26:40.541Z,12.97
2023-02-02T09:29:15.351Z,15.30
2023-02-02T09:31:42.690Z,14.47
2023-02-02T09:34:13.090Z,12.27
2023-02-02T09:36:41.423Z,12.90
2023-02-02T09:39:13.432Z,11.40
2023-02-02T09:41:40.857Z,12.97
2023-02-02T09:44:25.802Z,12.80
2023-02-02T09:47:07.929Z,9.63
2023-02-02T09:50:11.226Z,15.40
2023-02-02T09:53:31.824Z,11.00
2023-02-02T09:56:04.156Z,11.83
2023-02-02T09:58:52.202Z,9.10
2023-02-02T10:01:42.929Z,10.67
2023-02-02T10:04:27.730Z,8.77
2023-02-02T10:07:00.571Z,11.87
2023-02-02T10:09:48.104Z,15.23
2023-02-02T10:13:03.997Z,12.77
2023-02-02T10:15:39.828Z,12.97
2023-02-02T10:18:20.133Z,13.77
2023-02-02T10:21:29.149Z,14.20
2023-02-02T10:23:58.871Z,9.07
2023-02-02T10:26:44.923Z,10.27
2023-02-02T10:29:21.836Z,14.17
2023-02-02T10:32:34.251Z,10.57
2023-02-02T10:35:20.836Z,12.90
2023-02-02T10:38:23.781Z,9.60
2023-02-02T10:41:05.227Z,10.33
2023-02-02T10:44:00.898Z,11.70
2023-02-02T10:46:38.686Z,11.10
2023-02-02T10:49:39.207Z,10.85
2023-02-02T10:52:20.856Z,10.53
2023-02-02T10:55:10.828Z,11.33
2023-02-02T10:58:06.753Z,10.97
2023-02-02T11:00:46.311Z,11.47
2023-02-02T11:03:17.047Z,15.53
2023-02-02T11:06:10.674Z,14.83
2023-02-02T11:08:45.309Z,10.73
2023-02-02T11:11:34.458Z,13.00
2023-02-02T11:14:17.112Z,9.98
2023-02-02T11:16:45.703Z,12.90
2023-02-02T11:19:19.713Z,11.23
2023-02-02T11:21:56.723Z,14.80
2023-02-02T11:24:41.070Z,15.40
2023-02-02T11:27:18.251Z,10.07
2023-02-02T11:29:54.740Z,11.97
2023-02-02T11:32:33.176Z,10.27
2023-02-02T11:35:14.933Z,14.53
2023-02-02T11:38:17.180Z,15.33
2023-02-02T11:40:53.603Z,8.73
2023-02-02T11:43:51.744Z,14.87
2023-02-02T11:46:28.988Z,10.93
2023-02-02T11:49:03.755Z,10.43
2023-02-02T11:51:32.199Z,7.93
2023-02-02T11:54:23.395Z,8.57
2023-02-02T11:56:54.412Z,10.98
2023-02-02T11:59:41.608Z,11.10
2023-02-02T12:02:27.762Z,9.00
2023-02-02T12:05:15.442Z,10.32
2023-02-02T12:07:44.641Z,12.00
2023-02-02T12:10:56.766Z,10.20
2023-02-02T12:13:53.645Z,10.07
2023-02-02T12:16:26.657Z,12.83
2023-02-02T12:19:41.489Z,12.80
2023-02-02T12:22:49.488Z,10.10
2023-02-02T12:25:34.895Z,6.33
2023-02-02T12:28:11.441Z,10.25
2023-02-02T12:31:37.830Z,10.83
2023-02-02T12:34:37.798Z,11.20
2023-02-02T12:37:19.582Z,11.00
2023-02-02T12:40:31.216Z,11.38
2023-02-02T12:43:32.826Z,8.27
2023-02-02T12:46:29.125Z,9.47
2023-02-02T12:49:12.759Z,9.07
2023-02-02T12:52:11.473Z,9.00
2023-02-02T12:54:54.794Z,7.87
2023-02-02T12:57:38.142Z,7.03
2023-02-02T13:00:40.793Z,10.32
2023-02-02T13:03:28.805Z,7.25
2023-02-02T13:09:12.350Z,9.98
2023-02-02T13:11:51.891Z,9.98
2023-02-02T13:14:42.134Z,7.77
2023-02-02T13:17:23.567Z,12.00
2023-02-02T13:19:55.369Z,7.47
2023-02-02T13:22:31.952Z,12.67
2023-02-02T13:25:02.920Z,8.67
2023-02-02T13:27:31.526Z,9.30
2023-02-02T13:30:12.287Z,8.10
2023-02-02T13:32:45.326Z,7.63
2023-02-02T13:35:27.620Z,8.87
2023-02-02T13:38:02.522Z,7.17
2023-02-02T13:40:40.494Z,9.73
2023-02-02T13:43:29.184Z,12.65
2023-02-02T13:46:42.597Z,9.80
2023-02-02T13:49:43.969Z,8.43
2023-02-02T13:52:16.757Z,8.90
2023-02-02T13:55:24.377Z,8.73
2023-02-02T13:58:15.676Z,11.37
2023-02-02T14:01:09.377Z,7.83
2023-02-02T14:03:50.985Z,7.27
2023-02-02T14:06:21.879Z,9.30
2023-02-02T14:09:05.129Z,7.20
2023-02-02T14:11:42.452Z,8.70
2023-02-02T14:14:38.093Z,5.77
2023-02-02T14:17:14.085Z,7.50
2023-02-02T14:19:44.440Z,8.23
2023-02-02T14:22:14.049Z,9.27
2023-02-02T14:24:45.907Z,10.70
2023-02-02T14:27:15.894Z,9.37
2023-02-02T14:29:46.901Z,12.13
2023-02-02T14:32:29.176Z,6.47
2023-02-02T14:35:10.051Z,9.10
2023-02-02T14:38:06.000Z,7.33
2023-02-02T14:41:01.534Z,6.60
2023-02-02T14:43:56.077Z,8.00
2023-02-02T14:46:39.790Z,9.20
2023-02-02T14:49:17.304Z,7.63
2023-02-02T14:52:00.227Z,8.53
2023-02-02T14:54:41.112Z,7.17
2023-02-02T14:57:28.248Z,10.57
2023-02-02T14:59:59.324Z,8.60
2023-02-02T15:02:36.742Z,10.33
2023-02-02T15:05:28.944Z,7.63
2023-02-02T15:08:12.494Z,7.17
2023-02-02T15:11:25.491Z,7.60
2023-02-02T15:14:07.130Z,8.00
2023-02-02T15:16:38.625Z,5.97
2023-02-02T15:19:28.548Z,8.13
2023-02-02T15:21:59.292Z,4.37
2023-02-02T15:24:29.864Z,4.60
2023-02-02T15:27:00.109Z,7.70
2023-02-02T15:29:47.965Z,8.70
2023-02-02T15:32:24.009Z,6.87
2023-02-02T15:35:01.797Z,6.27
2023-02-02T15:37:41.837Z,7.87
2023-02-02T15:40:17.054Z,8.20
2023-02-02T15:42:55.627Z,6.63
2023-02-02T15:45:29.474Z,7.83
2023-02-02T15:47:58.765Z,10.53
2023-02-02T15:50:27.096Z,10.50
2023-02-02T15:52:55.946Z,10.13
2023-02-02T15:55:35.849Z,9.03
2023-02-02T15:58:04.018Z,6.33
2023-02-02T16:00:35.164Z,7.80
2023-02-02T16:03:19.397Z,9.47
2023-02-02T16:05:55.813Z,7.80
2023-02-02T16:08:35.119Z,8.50
2023-02-02T16:11:23.818Z,9.40
2023-02-02T16:14:07.022Z,8.50
2023-02-02T16:16:38.138Z,9.27
2023-02-02T16:19:25.391Z,6.80
2023-02-02T16:22:07.472Z,13.00
2023-02-02T16:24:41.497Z,9.17
2023-02-02T16:27:18.169Z,11.90
2023-02-02T16:29:45.409Z,12.03
2023-02-02T16:32:29.433Z,12.60
2023-02-02T16:34:57.076Z,7.70
2023-02-02T16:37:32.343Z,12.43
2023-02-02T16:40:38.781Z,7.50
2023-02-02T16:43:16.821Z,15.27
2023-02-02T16:46:06.053Z,9.73
2023-02-02T16:48:46.522Z,8.73
2023-02-02T16:51:16.423Z,7.37
2023-02-02T16:54:13.863Z,7.67
2023-02-02T16:56:45.051Z,12.57
2023-02-02T16:59:37.023Z,8.63
2023-02-02T17:02:18.482Z,10.37
2023-02-02T17:04:50.073Z,8.07
2023-02-02T17:07:17.729Z,9.03
2023-02-02T17:09:48.181Z,8.50
2023-02-02T17:12:35.221Z,8.47
2023-02-02T17:15:28.936Z,8.20
2023-02-02T17:17:57.014Z,10.67
2023-02-02T17:20:26.172Z,7.20
2023-02-02T17:23:09.776Z,8.37
2023-02-02T17:25:44.104Z,8.70
2023-02-02T17:28:14.625Z,6.97
2023-02-02T17:30:47.705Z,6.53
2023-02-02T17:33:19.445Z,7.30
2023-02-02T17:35:55.780Z,13.43
2023-02-02T17:38:25.571Z,6.47
2023-02-02T17:40:53.963Z,7.90
2023-02-02T17:43:21.665Z,8.33
2023-02-02T17:45:49.417Z,7.60
2023-02-02T17:48:17.921Z,10.13
2023-02-02T17:50:45.645Z,8.27
2023-02-02T17:53:20.357Z,7.63
2023-02-02T17:55:49.817Z,7.90
2023-02-02T17:58:18.040Z,7.83
2023-02-02T18:00:53.843Z,8.50
2023-02-02T18:03:34.266Z,10.30
2023-02-02T18:06:02.594Z,8.90
2023-02-02T18:08:31.929Z,11.03
2023-02-02T18:10:59.531Z,10.20
2023-02-02T18:13:27.421Z,8.70
2023-02-02T18:15:56.202Z,10.40
2023-02-02T18:18:23.708Z,14.47
2023-02-02T18:20:51.701Z,15.67
2023-02-02T18:23:19.870Z,13.17
2023-02-02T18:25:47.301Z,11.00
2023-02-02T18:28:17.697Z,11.43
2023-02-02T18:30:47.083Z,12.67
2023-02-02T18:33:17.823Z,13.60
2023-02-02T18:35:46.872Z,11.87
2023-02-02T18:38:14.730Z,12.60
2023-02-02T18:40:42.044Z,10.40
2023-02-02T18:43:09.501Z,12.00
2023-02-02T18:45:37.115Z,16.50
2023-02-02T18:48:04.494Z,11.13
2023-02-02T18:50:31.541Z,14.37
2023-02-02T18:52:58.752Z,12.03
2023-02-02T18:55:27.002Z,12.77
2023-02-02T18:57:54.558Z,12.30
2023-02-02T19:00:22.226Z,11.77
2023-02-02T19:02:49.616Z,12.83
2023-02-02T19:05:35.612Z,10.30
2023-02-02T19:08:04.026Z,12.43
2023-02-02T19:10:33.911Z,11.07
2023-02-02T19:13:18.007Z,13.23
2023-02-02T19:15:47.915Z,12.00
2023-02-02T19:18:24.217Z,9.50
2023-02-02T19:20:52.643Z,12.03
2023-02-02T19:23:23.597Z,9.57
2023-02-02T19:25:56.556Z,11.20
2023-02-02T19:28:30.716Z,14.30
2023-02-02T19:31:02.174Z,12.27
2023-02-02T19:33:45.632Z,12.73
2023-02-02T19:36:30.820Z,9.70
2023-02-02T19:39:20.519Z,12.17
2023-02-02T19:41:48.263Z,12.13
2023-02-02T19:44:19.439Z,11.23
2023-02-02T19:46:52.137Z,10.07
2023-02-02T19:49:31.967Z,13.30
2023-02-02T19:52:04.089Z,12.20
2023-02-02T19:54:43.858Z,10.13
2023-02-02T19:57:14.002Z,10.57
2023-02-02T19:59:43.214Z,11.37
2023-02-02T20:02:34.577Z,10.67
2023-02-02T20:05:13.468Z,12.87
2023-02-02T20:07:41.026Z,11.13
2023-02-02T20:10:26.119Z,10.60
2023-02-02T20:12:54.767Z,10.70
2023-02-02T20:15:35.442Z,12.20
2023-02-02T20:18:06.621Z,12.47
2023-02-02T20:20:39.742Z,12.63
2023-02-02T20:23:43.012Z,13.50
2023-02-02T20:26:33.623Z,12.23
2023-02-02T20:29:16.751Z,13.53
2023-02-02T20:31:45.215Z,14.07
2023-02-02T20:34:39.787Z,14.43
2023-02-02T20:37:23.293Z,13.57
2023-02-02T20:40:01.964Z,18.37
2023-02-02T20:42:30.547Z,16.63
2023-02-02T20:44:58.316Z,13.03
2023-02-02T20:47:25.757Z,17.17
2023-02-02T20:49:53.197Z,16.60
2023-02-02T20:52:24.138Z,21.13
2023-02-02T20:54:52.478Z,13.40
2023-02-02T20:57:19.850Z,17.80
2023-02-02T20:59:47.180Z,14.60
2023-02-02T21:02:22.067Z,15.07
2023-02-02T21:04:50.370Z,15.30
2023-02-02T21:07:20.964Z,15.10
2023-02-02T21:09:51.026Z,18.03
2023-02-02T21:12:18.556Z,16.57
2023-02-02T21:14:46.176Z,15.43
2023-02-02T21:17:15.603Z,18.13
2023-02-02T21:19:43.589Z,15.90
2023-02-02T21:22:11.643Z,14.40
2023-02-02T21:24:39.337Z,15.70
2023-02-02T21:27:07.622Z,15.13
2023-02-02T21:29:35.225Z,14.20
2023-02-02T21:32:03.521Z,12.60
2023-02-02T21:34:33.785Z,15.87
2023-02-02T21:37:01.164Z,11.07
2023-02-02T21:39:29.947Z,11.87
2023-02-02T21:42:09.493Z,10.70
2023-02-02T21:45:07.481Z,8.93
2023-02-02T21:47:46.387Z,9.63
2023-02-02T21:50:20.486Z,12.07
2023-02-02T21:52:47.734Z,15.60
2023-02-02T21:55:36.064Z,10.70
2023-02-02T21:58:25.588Z,12.07
2023-02-02T22:00:57.430Z,13.40
2023-02-02T22:03:37.550Z,8.93
2023-02-02T22:06:26.351Z,11.40
2023-02-02T22:09:26.429Z,11.97
2023-02-02T22:12:02.002Z,10.17
2023-02-02T22:14:43.991Z,10.10
2023-02-02T22:17:34.408Z,9.33
2023-02-02T22:20:18.184Z,16.43
2023-02-02T22:22:51.064Z,7.93
2023-02-02T22:25:36.607Z,11.23
2023-02-02T22:28:39.505Z,12.83
2023-02-02T22:31:06.567Z,10.47
2023-02-02T22:33:33.741Z,15.07
2023-02-02T22:36:01.112Z,12.27
2023-02-02T22:38:28.587Z,11.30
2023-02-02T22:40:56.004Z,12.17
2023-02-02T22:43:23.136Z,11.03
2023-02-02T22:45:50.229Z,17.10
2023-02-02T22:48:17.686Z,8.30
2023-02-02T22:50:45.291Z,9.97
2023-02-02T22:53:14.040Z,9.43
2023-02-02T22:55:41.655Z,10.50
2023-02-02T22:58:09.095Z,13.43
2023-02-02T23:00:37.679Z,11.13
2023-02-02T23:03:04.932Z,12.80
2023-02-02T23:05:31.932Z,9.27
2023-02-02T23:07:59.231Z,13.23
2023-02-02T23:10:28.403Z,11.97
2023-02-02T23:12:58.452Z,13.07
2023-02-02T23:15:26.249Z,13.80
2023-02-02T23:17:54.406Z,7.70
2023-02-02T23:20:21.813Z,10.00
2023-02-02T23:22:49.229Z,14.40
2023-02-02T23:25:18.732Z,13.90
2023-02-02T23:27:46.343Z,12.67
2023-02-02T23:30:15.096Z,10.33
2023-02-02T23:32:42.523Z,11.50
2023-02-02T23:35:10.843Z,15.90
2023-02-02T23:37:38.847Z,10.93
2023-02-02T23:40:06.674Z,15.37
2023-02-02T23:42:34.095Z,12.20
2023-02-02T23:45:01.273Z,16.77
2023-02-02T23:47:28.488Z,15.67
2023-02-02T23:49:56.333Z,14.00
2023-02-02T23:52:24.093Z,16.63
2023-02-02T23:54:53.012Z,16.57
2023-02-02T23:57:20.994Z,14.57
2023-02-02T23:59:48.118Z,16.90
